Latest Weather Observations for Sydney Olympic Park

IDN60901

Issued at 4:45 am EST Thursday 28 August 2014 (issued every 10 minutes, with the page automatically refreshed every 10 minutes)

About weather observations | Map of Sydney area stations | Latest observations for Sydney area | Other Formats
Station Details ID: 066212 Name: SYDNEY OLYMPIC PARK AWS (ARCHERY CENTRE) Lat: -33.83 Lon: 151.07 Height: 4.0 m
Data from the previous 72 hours. | See also: Recent months at Sydney Olympic Park
Date/Time
EST
Tmp

°C
App
Tmp
°C
Dew
Point
°C
Rel
Hum
%
Delta-T

°C
Wind Press
QNH
hPa
Press
MSL
hPa
Rain
since
9 am
mm
Dir
 
Spd
km/h
Gust
km/h
Spd
kts
Gust
kts
28/04:30am 12.0 11.4 11.7 98 0.2 S 6 9 3 5 - - 23.2
28/04:00am 12.4 10.6 12.1 98 0.2 E 13 22 7 12 - - 20.4
28/03:49am 12.1 11.0 11.8 98 0.2 E 9 24 5 13 - - 16.2
28/03:30am 11.5 10.6 11.2 98 0.2 WSW 7 15 4 8 - - 15.4
28/03:00am 11.3 10.3 11.0 98 0.2 WSW 7 13 4 7 - - 15.4
28/02:30am 11.2 9.8 10.9 98 0.2 W 9 15 5 8 - - 15.4
28/02:00am 11.0 9.9 10.7 98 0.2 W 7 11 4 6 - - 15.4
28/01:42am 10.9 9.8 10.6 98 0.2 W 7 9 4 5 - - 15.4
28/01:30am 11.0 9.9 10.5 97 0.3 WSW 7 13 4 7 - - 15.4
28/01:00am 11.6 10.0 10.3 92 0.7 WSW 9 15 5 8 - - 14.4
28/12:30am 11.7 9.7 10.1 90 0.8 WSW 11 17 6 9 - - 14.0
28/12:00am 11.7 10.1 10.1 90 0.8 W 9 17 5 9 - - 14.0
 
Date/Time
EST
Tmp

°C
App
Tmp
°C
Dew
Point
°C
Rel
Hum
%
Delta-T

°C
Wind Press
QNH
hPa
Press
MSL
hPa
Rain
since
9 am
mm
Dir
 
Spd
km/h
Gust
km/h
Spd
kts
Gust
kts
27/11:30pm 11.8 9.8 10.0 89 0.9 WSW 11 17 6 9 - - 14.0
27/11:00pm 11.7 10.4 9.9 89 0.9 WSW 7 15 4 8 - - 14.0
27/10:30pm 12.3 10.3 10.2 87 1.1 WSW 11 17 6 9 - - 14.0
27/10:00pm 12.2 10.7 10.4 89 0.9 WSW 9 13 5 7 - - 14.0
27/09:30pm 12.4 10.9 10.5 88 1.0 WSW 9 17 5 9 - - 14.0
27/09:00pm 12.9 11.0 10.6 86 1.2 SW 11 17 6 9 - - 14.0
27/08:30pm 13.3 11.3 10.1 81 1.7 SW 11 17 6 9 - - 14.0
27/08:00pm 13.7 12.4 9.9 78 2.0 WSW 7 13 4 7 - - 14.0
27/07:30pm 15.0 12.5 9.6 70 2.8 S 13 17 7 9 - - 14.0
27/07:00pm 15.1 11.8 9.7 70 2.8 S 17 26 9 14 - - 14.0
27/06:30pm 15.5 13.2 10.3 71 2.7 S 13 26 7 14 - - 14.0
27/06:00pm 15.6 12.9 10.4 71 2.7 SSE 15 24 8 13 - - 14.0
27/05:30pm 15.8 12.3 10.8 72 2.7 SSE 20 28 11 15 - - 14.0
27/05:00pm 15.9 13.1 11.3 74 2.5 SSE 17 30 9 16 - - 14.0
27/04:30pm 16.4 13.0 11.1 71 2.8 SSE 20 32 11 17 - - 14.0
27/04:00pm 16.7 14.0 12.8 78 2.2 SSE 19 30 10 16 - - 14.0
27/03:30pm 16.0 14.3 13.7 86 1.3 S 15 26 8 14 - - 14.0
27/03:00pm 15.5 13.0 14.0 91 0.8 S 20 30 11 16 - - 14.0
27/02:30pm 14.8 12.8 14.0 95 0.4 S 17 24 9 13 - - 14.0
27/02:22pm 14.7 12.8 14.2 97 0.3 S 17 30 9 16 - - 14.0
27/02:00pm 15.0 12.4 13.9 93 0.6 S 20 32 11 17 - - 13.4
27/01:58pm 15.1 12.6 14.1 94 0.6 S 20 32 11 17 - - 13.0
27/01:35pm 14.2 12.5 13.7 97 0.3 S 15 24 8 13 - - 13.0
27/01:30pm 14.0 11.8 13.2 95 0.4 S 17 24 9 13 - - 13.0
27/01:11pm 13.9 8.5 12.3 90 0.9 SE 32 50 17 27 - - 9.6
27/01:06pm 15.4 14.5 13.8 90 0.9 S 11 19 6 10 - - 7.0
27/01:00pm 15.8 14.8 13.5 86 1.3 SSW 11 19 6 10 - - 6.4
27/12:30pm 15.1 13.1 13.8 92 0.7 S 17 30 9 16 - - 6.4
27/12:29pm 15.1 13.2 14.1 94 0.6 S 17 30 9 16 - - 6.4
27/12:17pm 14.9 12.1 13.1 89 1.0 S 20 33 11 18 - - 6.4
27/12:00pm 15.8 11.5 13.1 84 1.5 SSE 28 43 15 23 - - 6.4
27/11:30am 17.3 14.1 14.2 82 1.8 SSE 24 35 13 19 - - 6.2
27/11:00am 15.7 13.8 14.2 91 0.9 SSE 17 24 9 13 - - 6.2
27/10:57am 15.7 13.6 14.6 93 0.6 SSE 19 24 10 13 - - 6.2
27/10:33am 15.2 12.7 14.1 93 0.6 SSE 20 37 11 20 - - 6.0
27/10:30am 15.5 13.0 13.5 88 1.1 SSE 19 37 10 20 - - 5.8
27/10:00am 15.5 13.4 14.7 95 0.5 SSE 19 35 10 19 - - 5.6
27/09:42am 14.6 13.9 14.3 98 0.2 SSW 11 17 6 9 - - 5.6
27/09:30am 13.8 12.8 13.5 98 0.2 SSE 11 17 6 9 - - 5.6
27/09:11am 14.0 13.1 13.7 98 0.2 S 11 22 6 12 - - 1.0
27/09:00am 13.9 14.7 13.6 98 0.2 SW 2 7 1 4 - - 22.2
27/08:48am 13.2 13.4 12.9 98 0.2 S 4 7 2 4 - - 22.2
27/08:30am 12.8 11.1 12.5 98 0.2 SSE 13 26 7 14 - - 22.0
27/08:00am 13.3 11.0 13.0 98 0.2 S 17 26 9 14 - - 19.6
27/07:30am 13.9 12.2 13.6 98 0.2 S 15 24 8 13 - - 19.0
27/07:00am 13.6 12.6 13.3 98 0.2 S 11 22 6 12 - - 19.0
27/06:45am 13.5 12.0 13.2 98 0.2 S 13 24 7 13 - - 19.0
27/06:30am 13.4 11.9 13.1 98 0.2 S 13 22 7 12 - - 19.0
27/06:26am 13.2 12.0 12.9 98 0.2 S 11 17 6 9 - - 19.0
27/06:00am 13.0 11.0 12.7 98 0.2 S 15 20 8 11 - - 18.2
27/05:30am 13.0 11.4 12.7 98 0.2 SSE 13 20 7 11 - - 18.2
27/05:13am 13.6 12.9 13.3 98 0.2 S 9 17 5 9 - - 18.2
27/05:00am 13.8 12.1 13.5 98 0.2 S 15 24 8 13 - - 18.0
27/04:53am 13.7 11.9 13.4 98 0.2 S 15 24 8 13 - - 18.0
27/04:30am 13.6 12.2 13.3 98 0.2 S 13 22 7 12 - - 17.2
27/04:14am 13.6 12.6 13.3 98 0.2 SE 11 24 6 13 - - 17.2
27/04:00am 13.8 12.1 13.5 98 0.2 S 15 26 8 14 - - 17.2
27/03:32am 14.2 13.7 13.9 98 0.2 S 9 17 5 9 - - 13.0
27/03:30am 13.9 13.3 13.6 98 0.2 S 9 13 5 7 - - 12.8
27/03:00am 13.1 12.6 12.8 98 0.2 SSE 7 11 4 6 - - 12.6
27/02:30am 14.0 13.5 13.7 98 0.2 S 9 11 5 6 - - 12.6
27/02:00am 14.2 13.4 13.9 98 0.2 S 11 15 6 8 - - 12.6
27/01:30am 12.9 13.7 12.6 98 0.2 CALM 0 0 0 0 - - 12.6
27/01:12am 13.1 14.0 12.8 98 0.2 CALM 0 0 0 0 - - 12.6
27/01:00am 13.2 14.1 12.9 98 0.2 CALM 0 0 0 0 - - 12.6
27/12:36am 13.5 14.5 13.2 98 0.2 CALM 0 2 0 1 - - 12.6
27/12:30am 13.6 14.6 13.3 98 0.2 CALM 0 0 0 0 - - 12.6
27/12:19am 13.6 14.6 13.3 98 0.2 CALM 0 0 0 0 - - 12.6
27/12:00am 13.8 13.2 13.5 98 0.2 SSE 9 13 5 7 - - 12.4
 
Date/Time
EST
Tmp

°C
App
Tmp
°C
Dew
Point
°C
Rel
Hum
%
Delta-T

°C
Wind Press
QNH
hPa
Press
MSL
hPa
Rain
since
9 am
mm
Dir
 
Spd
km/h
Gust
km/h
Spd
kts
Gust
kts
26/11:36pm 14.2 13.4 13.9 98 0.2 SSE 11 19 6 10 - - 10.2
26/11:30pm 14.2 13.7 13.9 98 0.2 SSE 9 15 5 8 - - 9.6
26/11:00pm 14.6 13.0 13.8 95 0.4 SE 15 24 8 13 - - 9.4
26/10:30pm 15.0 13.6 14.4 96 0.3 ESE 15 26 8 14 - - 9.4
26/10:00pm 14.7 13.3 14.4 98 0.2 SE 15 20 8 11 - - 9.4
26/09:30pm 14.4 14.4 14.1 98 0.2 SSE 7 13 4 7 - - 9.4
26/09:00pm 14.6 12.7 14.1 97 0.3 ESE 17 32 9 17 - - 9.4
26/08:30pm 14.0 14.0 13.7 98 0.2 SSE 6 7 3 4 - - 9.4
26/08:25pm 14.1 14.2 13.8 98 0.2 SSE 6 7 3 4 - - 9.4
26/08:05pm 13.5 14.5 13.2 98 0.2 CALM 0 0 0 0 - - 9.2
26/08:00pm 13.7 14.8 13.4 98 0.2 CALM 0 0 0 0 - - 9.0
26/07:30pm 14.2 14.1 13.9 98 0.2 ESE 7 9 4 5 - - 8.8
26/07:00pm 14.1 13.6 13.8 98 0.2 SE 9 13 5 7 - - 8.8
26/06:30pm 14.1 13.2 13.8 98 0.2 SE 11 17 6 9 - - 8.8
26/06:00pm 14.1 13.6 13.8 98 0.2 S 9 17 5 9 - - 8.6
26/05:30pm 14.0 12.7 13.7 98 0.2 S 13 20 7 11 - - 8.6
26/05:11pm 13.8 13.8 13.5 98 0.2 S 6 11 3 6 - - 8.4
26/05:00pm 13.8 12.4 13.5 98 0.2 S 13 19 7 10 - - 8.4
26/04:39pm 14.5 13.8 14.2 98 0.2 SE 11 17 6 9 - - 5.2
26/04:30pm 14.7 14.4 14.4 98 0.2 SSW 9 15 5 8 - - 4.2
26/04:00pm 14.8 14.9 14.5 98 0.2 SSW 7 13 4 7 - - 4.2
26/03:30pm 14.6 14.6 14.3 98 0.2 S 7 11 4 6 - - 4.2
26/03:16pm 14.7 14.8 14.4 98 0.2 S 7 9 4 5 - - 4.2
26/03:00pm 14.8 14.2 14.5 98 0.2 SSE 11 17 6 9 - - 3.8
26/02:53pm 15.1 14.9 14.8 98 0.2 S 9 15 5 8 - - 3.2
26/02:30pm 15.1 14.9 14.8 98 0.2 S 9 13 5 7 - - 2.6
26/02:00pm 14.5 14.1 14.2 98 0.2 S 9 17 5 9 - - 2.6
26/01:30pm 14.2 13.4 13.9 98 0.2 S 11 15 6 8 - - 2.6
26/01:05pm 14.2 13.0 13.9 98 0.2 S 13 20 7 11 - - 2.6
26/01:00pm 14.1 12.5 13.8 98 0.2 S 15 20 8 11 - - 2.6
26/12:51pm 14.4 13.2 14.1 98 0.2 SSE 13 19 7 10 - - 2.6
26/12:30pm 14.8 14.4 14.0 95 0.4 S 9 15 5 8 - - 2.6
26/12:00pm 15.5 15.2 14.5 94 0.6 S 9 15 5 8 - - 2.6
26/11:30am 14.7 15.0 14.4 98 0.2 SSW 6 9 3 5 - - 2.6
26/11:00am 14.1 14.2 13.8 98 0.2 S 6 7 3 4 - - 2.6
26/10:44am 14.3 14.4 14.0 98 0.2 SE 6 7 3 4 - - 2.6
26/10:30am 14.1 14.5 13.8 98 0.2 SSE 4 7 2 4 - - 2.4
26/10:00am 13.4 13.2 13.1 98 0.2 SE 6 7 3 4 - - 1.6
26/09:30am 12.9 12.4 12.6 98 0.2 SE 7 11 4 6 - - 0.6
26/09:00am 12.6 12.9 12.3 98 0.2 ENE 2 6 1 3 - - 2.4
26/08:30am 12.1 11.9 11.8 98 0.2 N 4 7 2 4 - - 1.8
26/08:00am 11.9 11.3 11.6 98 0.2 NNW 6 7 3 4 - - 0.6
26/07:37am 11.6 10.9 11.3 98 0.2 NW 6 7 3 4 - - 0.4
26/07:30am 11.6 10.9 11.3 98 0.2 NW 6 7 3 4 - - 0.2
26/07:00am 10.8 11.0 10.5 98 0.2 CALM 0 0 0 0 - - 0.2
26/06:30am 10.2 10.2 9.9 98 0.2 CALM 0 0 0 0 - - 0.2
26/06:25am 10.2 10.2 9.9 98 0.2 CALM 0 0 0 0 - - 0.2
26/06:00am 10.2 10.2 9.9 98 0.2 CALM 0 0 0 0 - - 0.2
26/05:35am 10.2 10.2 9.9 98 0.2 CALM 0 0 0 0 - - 0.2
26/05:30am 10.3 10.4 10.0 98 0.2 CALM 0 0 0 0 - - 0.2
26/05:00am 10.7 9.7 10.4 98 0.2 WNW 6 6 3 3 - - 0.2
26/04:30am 10.9 10.4 10.6 98 0.2 NW 4 7 2 4 - - 0.2
26/04:00am 10.7 9.7 10.4 98 0.2 WNW 6 7 3 4 - - 0.2
26/03:58am 10.7 9.7 10.4 98 0.2 WNW 6 7 3 4 - - 0.0
26/03:30am 10.3 10.4 10.0 98 0.2 CALM 0 0 0 0 - - 0.0
26/03:00am 10.3 9.6 10.0 98 0.2 WNW 4 7 2 4 - - 0.0
26/02:30am 10.4 10.5 10.1 98 0.2 CALM 0 2 0 1 - - 0.0
26/02:00am 11.0 10.5 10.7 98 0.2 W 4 6 2 3 - - 0.0
26/01:30am 11.3 10.5 11.0 98 0.2 WNW 6 7 3 4 - - 0.0
26/01:00am 11.6 12.0 11.3 98 0.2 CALM 0 0 0 0 - - 0.0
26/12:59am 11.6 12.0 11.3 98 0.2 CALM 0 0 0 0 - - 0.0
26/12:30am 11.7 12.1 11.4 98 0.2 CALM 0 6 0 3 - - 0.0
26/12:00am 11.7 12.1 11.4 98 0.2 CALM 0 0 0 0 - - 0.0
 
Date/Time
EST
Tmp

°C
App
Tmp
°C
Dew
Point
°C
Rel
Hum
%
Delta-T

°C
Wind Press
QNH
hPa
Press
MSL
hPa
Rain
since
9 am
mm
Dir
 
Spd
km/h
Gust
km/h
Spd
kts
Gust
kts
25/11:30pm 11.7 12.1 11.4 98 0.2 CALM 0 2 0 1 - - 0.0
25/11:00pm 12.4 13.1 12.1 98 0.2 CALM 0 0 0 0 - - 0.0
25/10:30pm 12.9 13.7 12.4 97 0.3 CALM 0 0 0 0 - - 0.0
25/10:00pm 14.0 13.9 13.4 96 0.3 E 6 11 3 6 - - 0.0
25/09:30pm 14.3 12.8 13.0 92 0.7 ESE 13 15 7 8 - - 0.0
25/09:00pm 14.6 14.6 13.5 93 0.6 ESE 6 9 3 5 - - 0.0
25/08:30pm 14.7 13.8 13.6 93 0.6 S 11 15 6 8 - - 0.0
25/08:00pm 14.8 14.5 14.3 97 0.3 S 9 15 5 8 - - 0.0
25/07:30pm 13.8 13.8 13.5 98 0.2 S 6 7 3 4 - - 0.0
25/07:00pm 13.6 14.6 13.3 98 0.2 CALM 0 0 0 0 - - 0.0
25/06:30pm 13.9 14.2 13.4 97 0.3 S 4 7 2 4 - - 0.0
25/06:00pm 14.9 16.1 13.9 94 0.6 CALM 0 0 0 0 - - 0.0
25/05:30pm 15.8 15.4 14.2 90 0.9 SE 9 11 5 6 - - 0.0
25/05:00pm 16.5 16.0 13.8 84 1.5 SE 9 15 5 8 - - 0.0
25/04:30pm 17.2 15.7 13.1 77 2.3 ESE 13 17 7 9 - - 0.0
25/04:00pm 17.7 14.9 12.6 72 2.8 E 19 24 10 13 - - 0.0
25/03:30pm 18.7 15.7 12.7 68 3.4 E 20 28 11 15 - - 0.0
25/03:00pm 19.2 16.1 10.2 56 4.8 E 17 24 9 13 - - 0.0
25/02:30pm 19.4 16.9 12.2 63 4.0 E 17 26 9 14 - - 0.0
25/02:00pm 19.8 17.9 11.8 60 4.4 E 13 20 7 11 - - 0.0
25/01:30pm 19.2 18.3 12.5 65 3.7 ENE 9 15 5 8 - - 0.0
25/01:00pm 18.8 17.0 12.1 65 3.7 ENE 13 19 7 10 - - 0.0
25/12:30pm 19.9 18.8 11.9 60 4.4 ENE 9 17 5 9 - - 0.0
25/12:00pm 19.3 18.5 11.6 61 4.2 ESE 7 11 4 6 - - 0.0
25/11:30am 19.0 17.9 10.6 58 4.5 E 7 11 4 6 - - 0.0
25/11:00am 18.8 18.4 12.3 66 3.6 ESE 6 11 3 6 - - 0.0
25/10:30am 17.1 16.6 12.0 72 2.8 W 6 9 3 5 - - 0.0
25/10:00am 16.7 17.1 13.6 82 1.7 W 4 9 2 5 - - 0.0
25/09:30am 15.6 15.3 13.3 86 1.3 NW 7 11 4 6 - - 0.0
25/09:00am 14.4 14.4 13.6 95 0.4 NW 6 9 3 5 - - 0.0
25/08:30am 13.1 13.2 12.8 98 0.2 N 4 7 2 4 - - 0.0
25/08:00am 11.7 10.8 11.4 98 0.2 NW 7 9 4 5 - - 0.0
25/07:30am 10.3 9.0 10.0 98 0.2 NW 7 9 4 5 - - 0.0
25/07:00am 8.1 7.6 7.8 98 0.1 CALM 0 0 0 0 - - 0.0
25/06:30am 7.4 6.7 7.1 98 0.1 CALM 0 0 0 0 - - 0.0
25/06:00am 7.6 7.0 7.3 98 0.1 CALM 0 0 0 0 - - 0.0
25/05:30am 7.8 7.2 7.5 98 0.1 CALM 0 0 0 0 - - 0.0
25/05:00am 7.8 7.2 7.5 98 0.1 CALM 0 0 0 0 - - 0.0

Latest Capital City Observations: Canberra | Sydney | Melbourne | Brisbane | Adelaide | Perth | Hobart | Darwin

Other Formats:

Comma delimited format used in spreadsheet applications
http://www.bom.gov.au/fwo/IDN60901/IDN60901.95765.axf

JavaScript Object Notation format (JSON) in row-major order
http://www.bom.gov.au/fwo/IDN60901/IDN60901.95765.json